createdAt,value
2018-07-11T00:00:31.785Z,83.39
2018-07-11T00:01:31.725Z,82.92
2018-07-11T00:03:27.667Z,83.78
2018-07-11T00:04:28.177Z,83.39
2018-07-11T00:06:25.124Z,84.26
2018-07-11T00:07:24.123Z,84.06
2018-07-11T00:09:20.054Z,84.45
2018-07-11T00:10:19.561Z,84.16
2018-07-11T00:12:15.489Z,83.39
2018-07-11T00:13:15.991Z,84.16
2018-07-11T00:15:11.420Z,84.35
2018-07-11T00:16:11.427Z,83.68
2018-07-11T00:18:07.364Z,84.26
2018-07-11T00:19:07.379Z,84.35
2018-07-11T00:21:05.326Z,84.16
2018-07-11T00:22:05.830Z,84.35
2018-07-11T00:24:01.774Z,84.16
2018-07-11T00:25:01.265Z,84.06
2018-07-11T00:26:57.157Z,84.64
2018-07-11T00:27:57.169Z,84.16
2018-07-11T00:29:54.628Z,84.16
2018-07-11T00:30:53.105Z,84.06
2018-07-11T00:32:49.086Z,84.16
2018-07-11T00:33:49.079Z,84.83
2018-07-11T00:35:46.533Z,84.26
2018-07-11T00:36:45.020Z,84.06
2018-07-11T00:38:40.952Z,84.16
2018-07-11T00:39:40.959Z,84.16
2018-07-11T00:41:36.912Z,85.12
2018-07-11T00:42:36.924Z,85.02
2018-07-11T00:44:33.860Z,85.02
2018-07-11T00:45:32.837Z,84.83
2018-07-11T00:47:28.806Z,85.46
2018-07-11T00:48:28.777Z,85.46
2018-07-11T00:50:24.750Z,85.17
2018-07-11T00:51:24.707Z,85.36
2018-07-11T00:53:20.681Z,85.41
2018-07-11T00:54:20.666Z,85.27
2018-07-11T00:56:17.143Z,85.50
2018-07-11T00:57:18.121Z,86.04
2018-07-11T00:59:15.053Z,86.08
2018-07-11T01:00:14.708Z,85.75
2018-07-11T01:02:10.659Z,86.13
2018-07-11T01:03:11.167Z,86.13
2018-07-11T01:05:06.601Z,86.13
2018-07-11T01:06:06.602Z,85.94
2018-07-11T01:08:02.531Z,86.51
2018-07-11T01:09:03.057Z,87.37
2018-07-11T01:10:59.011Z,86.41
2018-07-11T01:11:58.476Z,86.70
2018-07-11T01:13:55.438Z,87.08
2018-07-11T01:14:54.416Z,86.90
2018-07-11T01:16:50.351Z,87.37
2018-07-11T01:17:50.346Z,87.56
2018-07-11T01:19:46.262Z,87.76
2018-07-11T01:20:46.270Z,88.13
2018-07-11T01:22:42.254Z,89.09
2018-07-11T01:23:42.757Z,89.29
2018-07-11T01:25:38.198Z,89.00
2018-07-11T01:26:38.186Z,89.58
2018-07-11T01:28:34.681Z,88.95
2018-07-11T01:29:34.134Z,88.90
2018-07-11T01:31:30.132Z,89.29
2018-07-11T01:32:30.084Z,88.81
2018-07-11T01:34:26.045Z,89.00
2018-07-11T01:35:27.033Z,88.62
2018-07-11T01:37:22.008Z,89.24
2018-07-11T01:38:22.495Z,89.86
2018-07-11T01:40:18.936Z,89.53
2018-07-11T01:41:17.936Z,89.95
2018-07-11T01:43:14.411Z,89.91
2018-07-11T01:44:13.884Z,90.48
2018-07-11T01:46:09.867Z,91.16
2018-07-11T01:47:09.807Z,90.30
2018-07-11T01:49:05.791Z,90.20
2018-07-11T01:50:05.753Z,90.67
2018-07-11T01:52:02.725Z,90.87
2018-07-11T01:53:01.694Z,90.58
2018-07-11T01:54:59.675Z,90.87
2018-07-11T01:55:57.646Z,91.06
2018-07-11T01:57:56.612Z,91.25
2018-07-11T01:58:55.549Z,91.44
2018-07-11T02:00:51.536Z,92.88
2018-07-11T02:01:52.014Z,92.49
2018-07-11T02:03:48.448Z,93.16
2018-07-11T02:04:47.968Z,93.35
2018-07-11T02:06:44.418Z,92.59
2018-07-11T02:07:43.372Z,92.69
2018-07-11T02:09:39.313Z,93.16
2018-07-11T02:10:39.839Z,93.07
2018-07-11T02:12:35.245Z,93.55
2018-07-11T02:13:35.795Z,94.02
2018-07-11T02:15:32.249Z,94.12
2018-07-11T02:16:31.712Z,94.41
2018-07-11T02:18:27.176Z,94.70
2018-07-11T02:19:27.184Z,94.70
2018-07-11T02:21:23.175Z,95.17
2018-07-11T02:22:23.119Z,94.89
2018-07-11T02:24:20.581Z,95.75
2018-07-11T02:25:19.048Z,95.65
2018-07-11T02:27:14.998Z,95.36
2018-07-11T02:28:14.985Z,95.36
2018-07-11T02:30:10.935Z,95.65
2018-07-11T02:31:11.461Z,96.22
2018-07-11T02:33:06.892Z,95.94
2018-07-11T02:34:07.890Z,96.42
2018-07-11T02:36:06.373Z,96.61
2018-07-11T02:37:05.858Z,96.89
2018-07-11T02:39:00.928Z,97.13
2018-07-11T02:40:01.448Z,97.52
2018-07-11T02:41:57.412Z,98.75
2018-07-11T02:42:58.383Z,98.57
2018-07-11T02:44:52.860Z,99.04
2018-07-11T02:45:52.838Z,99.24
2018-07-11T02:47:48.801Z,99.24
2018-07-11T02:48:48.777Z,99.33
2018-07-11T02:50:44.747Z,99.90
2018-07-11T02:51:44.718Z,99.99
2018-07-11T02:53:40.718Z,99.99
2018-07-11T02:54:40.677Z,99.99
2018-07-11T02:56:37.173Z,99.99
2018-07-11T02:57:37.116Z,99.99
2018-07-11T02:59:32.546Z,99.99
2018-07-11T03:00:33.033Z,99.99
2018-07-11T03:02:28.493Z,99.99
2018-07-11T03:03:28.969Z,99.99
2018-07-11T03:05:24.400Z,99.99
2018-07-11T03:06:24.404Z,99.99
2018-07-11T03:08:20.374Z,99.99
2018-07-11T03:09:20.364Z,99.99
2018-07-11T03:11:17.333Z,99.99
2018-07-11T03:12:16.860Z,99.99
2018-07-11T03:14:15.786Z,99.99
2018-07-11T03:15:14.460Z,99.99
2018-07-11T03:17:10.441Z,99.99
2018-07-11T03:18:10.412Z,99.99
2018-07-11T03:20:06.868Z,99.99
2018-07-11T03:21:06.362Z,99.99
2018-07-11T03:23:04.326Z,99.99
2018-07-11T03:24:03.310Z,99.99
2018-07-11T03:25:59.284Z,99.99
2018-07-11T03:26:59.235Z,99.99
2018-07-11T03:28:55.693Z,99.99
2018-07-11T03:29:55.197Z,99.99
2018-07-11T03:31:51.649Z,99.99
2018-07-11T03:32:51.647Z,99.99
2018-07-11T03:34:47.102Z,99.99
2018-07-11T03:35:47.570Z,99.99
2018-07-11T03:37:44.025Z,99.99
2018-07-11T03:38:43.020Z,99.99
2018-07-11T03:40:38.986Z,99.99
2018-07-11T03:41:38.956Z,99.99
2018-07-11T03:43:34.918Z,99.99
2018-07-11T03:44:34.885Z,99.99
2018-07-11T03:46:30.793Z,99.99
2018-07-11T03:47:31.355Z,99.99
2018-07-11T03:49:27.755Z,99.99
2018-07-11T03:50:27.754Z,99.99
2018-07-11T03:52:24.683Z,99.99
2018-07-11T03:53:24.687Z,99.99
2018-07-11T03:55:20.625Z,99.99
2018-07-11T03:56:20.625Z,99.99
2018-07-11T03:58:17.582Z,99.99
2018-07-11T03:59:16.565Z,99.99
2018-07-11T04:01:12.519Z,99.99
2018-07-11T04:02:12.484Z,99.99
2018-07-11T04:04:08.427Z,99.99
2018-07-11T04:05:09.952Z,99.99
2018-07-11T04:07:04.405Z,99.99
2018-07-11T04:08:04.383Z,99.99
2018-07-11T04:10:00.364Z,99.99
2018-07-11T04:11:00.315Z,99.99
2018-07-11T04:12:57.766Z,99.99
2018-07-11T04:13:56.264Z,99.99
2018-07-11T04:15:54.234Z,99.99
2018-07-11T04:16:54.212Z,99.99
2018-07-11T04:18:50.681Z,99.99
2018-07-11T04:19:51.163Z,99.99
2018-07-11T04:21:46.178Z,99.99
2018-07-11T04:22:47.154Z,99.99
2018-07-11T04:24:42.611Z,99.99
2018-07-11T04:25:42.110Z,99.99
2018-07-11T04:27:39.573Z,99.99
2018-07-11T04:28:38.573Z,99.99
2018-07-11T04:30:34.523Z,99.99
2018-07-11T04:31:34.984Z,99.99
2018-07-11T04:33:31.002Z,99.99
2018-07-11T04:34:29.958Z,99.99
2018-07-11T04:36:25.921Z,99.99
2018-07-11T04:37:25.871Z,99.99
2018-07-11T04:39:22.840Z,99.99
2018-07-11T04:40:21.810Z,99.99
2018-07-11T04:42:20.282Z,99.99
2018-07-11T04:43:19.903Z,99.99
2018-07-11T04:45:16.369Z,99.99
2018-07-11T04:46:15.841Z,99.99
2018-07-11T04:48:12.304Z,99.99
2018-07-11T04:49:11.791Z,99.99
2018-07-11T04:51:07.716Z,99.99
2018-07-11T04:52:07.728Z,99.99
2018-07-11T04:54:05.171Z,99.99
2018-07-11T04:55:04.175Z,99.99
2018-07-11T04:57:03.104Z,99.99
2018-07-11T04:58:01.577Z,99.99
2018-07-11T04:59:58.542Z,99.99
2018-07-11T05:00:57.510Z,99.99
2018-07-11T05:02:54.984Z,99.99
2018-07-11T05:03:53.447Z,99.99
2018-07-11T05:05:49.435Z,99.99
2018-07-11T05:06:50.902Z,99.99
2018-07-11T05:08:45.343Z,99.99
2018-07-11T05:09:45.327Z,99.99
2018-07-11T05:11:42.311Z,99.99
2018-07-11T05:12:41.291Z,99.99
2018-07-11T05:14:37.263Z,99.99
2018-07-11T05:15:37.217Z,99.99
2018-07-11T05:17:35.274Z,99.99
2018-07-11T05:18:35.159Z,99.99
2018-07-11T05:20:31.147Z,99.99
2018-07-11T05:21:32.130Z,99.99
2018-07-11T05:23:27.603Z,99.99
2018-07-11T05:24:27.077Z,99.99
2018-07-11T05:26:23.064Z,99.99
2018-07-11T05:27:23.069Z,99.99
2018-07-11T05:29:20.032Z,99.99
2018-07-11T05:30:19.087Z,99.99
2018-07-11T05:32:14.991Z,99.99
2018-07-11T05:33:15.004Z,99.99
2018-07-11T05:35:10.988Z,99.99
2018-07-11T05:36:10.956Z,99.99
2018-07-11T05:38:08.898Z,99.99
2018-07-11T05:39:08.906Z,99.99
2018-07-11T05:41:05.375Z,99.99
2018-07-11T05:42:05.375Z,99.99
2018-07-11T05:44:00.811Z,99.99
2018-07-11T05:45:00.808Z,99.99
2018-07-11T05:46:57.266Z,99.99
2018-07-11T05:47:56.721Z,99.99
2018-07-11T05:49:53.620Z,99.99
2018-07-11T05:50:53.204Z,99.99
2018-07-11T05:52:49.147Z,99.99
2018-07-11T05:53:49.561Z,99.99
2018-07-11T05:55:44.602Z,99.99
2018-07-11T05:56:44.563Z,99.99
2018-07-11T05:58:41.014Z,99.99
2018-07-11T05:59:41.022Z,99.99
2018-07-11T06:01:37.976Z,99.99
2018-07-11T06:02:36.513Z,99.99
2018-07-11T06:04:32.406Z,99.99
2018-07-11T06:05:32.452Z,99.99
2018-07-11T06:07:28.853Z,99.99
2018-07-11T06:08:28.322Z,99.99
2018-07-11T06:10:24.295Z,99.99
2018-07-11T06:11:24.284Z,99.99
2018-07-11T06:13:21.164Z,99.99
2018-07-11T06:14:21.234Z,99.99
2018-07-11T06:16:16.222Z,99.99
2018-07-11T06:17:16.191Z,99.99
2018-07-11T06:19:12.645Z,99.99
2018-07-11T06:20:12.149Z,99.99
2018-07-11T06:22:08.594Z,99.99
2018-07-11T06:23:08.073Z,99.99
2018-07-11T06:25:04.035Z,99.99
2018-07-11T06:26:04.538Z,99.99
2018-07-11T06:28:00.028Z,99.99
2018-07-11T06:28:59.995Z,99.99
2018-07-11T06:30:55.981Z,98.86
2018-07-11T06:31:56.445Z,99.01
2018-07-11T06:33:51.894Z,98.24
2018-07-11T06:34:51.909Z,98.24
2018-07-11T06:36:49.357Z,97.95
2018-07-11T06:37:47.865Z,97.76
2018-07-11T06:39:43.742Z,96.85
2018-07-11T06:40:43.759Z,96.94
2018-07-11T06:42:39.724Z,96.47
2018-07-11T06:43:39.699Z,95.51
2018-07-11T06:45:38.177Z,95.51
2018-07-11T06:46:37.658Z,95.12
2018-07-11T06:48:34.134Z,94.07
2018-07-11T06:49:33.616Z,93.49
2018-07-11T06:51:29.580Z,92.96
2018-07-11T06:52:29.567Z,92.77
2018-07-11T06:54:25.556Z,91.72
2018-07-11T06:55:26.557Z,92.48
2018-07-11T06:57:24.501Z,92.48
2018-07-11T06:58:23.649Z,92.24
2018-07-11T07:00:19.607Z,91.77
2018-07-11T07:01:19.612Z,91.67
2018-07-11T07:03:16.586Z,92.91
2018-07-11T07:04:15.574Z,92.48
2018-07-11T07:06:13.027Z,92.00
2018-07-11T07:07:12.023Z,91.05
2018-07-11T07:09:07.940Z,91.14
2018-07-11T07:10:07.942Z,91.33
2018-07-11T07:12:03.431Z,91.24
2018-07-11T07:13:03.415Z,91.24
2018-07-11T07:15:02.367Z,91.05
2018-07-11T07:16:01.524Z,90.37
2018-07-11T07:17:57.473Z,90.47
2018-07-11T07:18:57.471Z,90.37
2018-07-11T07:20:53.441Z,90.08
2018-07-11T07:21:53.432Z,90.37
2018-07-11T07:23:49.392Z,88.40
2018-07-11T07:24:49.421Z,88.59
2018-07-11T07:26:45.826Z,89.12
2018-07-11T07:27:45.306Z,89.89
2018-07-11T07:29:43.412Z,88.11
2018-07-11T07:30:44.249Z,88.40
2018-07-11T07:32:39.877Z,88.02
2018-07-11T07:33:39.362Z,87.58
2018-07-11T07:35:35.815Z,86.77
2018-07-11T07:36:35.293Z,86.96
2018-07-11T07:38:31.294Z,87.15
2018-07-11T07:39:31.278Z,86.58
2018-07-11T07:41:27.747Z,87.15
2018-07-11T07:42:27.220Z,86.52
2018-07-11T07:44:23.193Z,86.43
2018-07-11T07:45:23.183Z,86.33
2018-07-11T07:47:19.157Z,86.58
2018-07-11T07:48:19.166Z,86.68
2018-07-11T07:50:15.616Z,85.81
2018-07-11T07:51:15.116Z,85.75
2018-07-11T07:53:13.009Z,85.08
2018-07-11T07:54:11.065Z,85.37
2018-07-11T07:56:07.041Z,85.80
2018-07-11T07:57:07.012Z,84.84
2018-07-11T07:59:02.926Z,83.11
2018-07-11T08:00:02.937Z,83.20
2018-07-11T08:02:00.885Z,83.40
2018-07-11T08:03:01.386Z,83.01
2018-07-11T08:04:59.347Z,82.73
2018-07-11T08:05:59.837Z,82.73
2018-07-11T08:07:54.967Z,82.34
2018-07-11T08:08:54.967Z,83.01
2018-07-11T08:10:52.901Z,82.53
2018-07-11T08:11:53.422Z,81.23
2018-07-11T08:13:48.933Z,81.32
2018-07-11T08:14:49.380Z,80.27
2018-07-11T08:16:48.830Z,79.88
2018-07-11T08:17:46.974Z,78.34
2018-07-11T08:19:43.448Z,78.25
2018-07-11T08:20:43.426Z,78.83
2018-07-11T08:22:38.892Z,79.94
2018-07-11T08:23:38.877Z,80.13
2018-07-11T08:25:33.829Z,79.69
2018-07-11T08:26:33.346Z,79.50
2018-07-11T08:28:31.337Z,81.04
2018-07-11T08:29:31.323Z,79.69
2018-07-11T08:31:27.272Z,78.15
2018-07-11T08:32:27.770Z,78.44
2018-07-11T08:34:23.726Z,79.50
2018-07-11T08:35:23.205Z,78.96
2018-07-11T08:37:20.172Z,77.33
2018-07-11T08:38:19.684Z,77.04
2018-07-11T08:40:15.125Z,75.88
2018-07-11T08:41:16.127Z,76.26
2018-07-11T08:43:13.098Z,75.69
2018-07-11T08:44:13.073Z,73.57
2018-07-11T08:46:11.072Z,73.86
2018-07-11T08:47:11.009Z,73.19
2018-07-11T08:49:06.987Z,73.86
2018-07-11T08:50:06.977Z,74.15
2018-07-11T08:52:01.464Z,73.96
2018-07-11T08:53:01.444Z,73.19
2018-07-11T08:54:57.386Z,73.03
2018-07-11T08:55:57.392Z,72.55
2018-07-11T08:57:51.870Z,72.26
2018-07-11T08:58:52.354Z,72.17
2018-07-11T09:00:46.304Z,73.00
2018-07-11T09:01:46.288Z,72.36
2018-07-11T09:03:42.277Z,72.26
2018-07-11T09:04:42.761Z,71.30
2018-07-11T09:06:37.229Z,70.15
2018-07-11T09:07:36.671Z,69.76
2018-07-11T09:09:32.618Z,69.99
2018-07-11T09:10:33.158Z,70.18
2018-07-11T09:12:28.599Z,70.37
2018-07-11T09:13:28.572Z,70.28
2018-07-11T09:15:24.591Z,69.85
2018-07-11T09:16:24.525Z,70.66
2018-07-11T09:18:18.009Z,70.47
2018-07-11T09:19:18.501Z,70.95
2018-07-11T09:21:13.454Z,67.81
2018-07-11T09:22:13.464Z,67.71
2018-07-11T09:24:07.478Z,67.23
2018-07-11T09:25:06.926Z,67.03
2018-07-11T09:27:02.906Z,66.33
2018-07-11T09:28:03.879Z,66.04
2018-07-11T09:29:57.396Z,65.94
2018-07-11T09:30:57.359Z,66.52
2018-07-11T09:32:53.373Z,66.14
2018-07-11T09:33:53.341Z,66.07
2018-07-11T09:35:48.304Z,65.88
2018-07-11T09:36:48.309Z,64.34
2018-07-11T09:38:44.251Z,64.25
2018-07-11T09:39:43.742Z,64.73
2018-07-11T09:41:40.727Z,65.40
2018-07-11T09:42:39.709Z,65.30
2018-07-11T09:44:36.674Z,63.67
2018-07-11T09:45:35.686Z,63.57
2018-07-11T09:47:31.635Z,63.41
2018-07-11T09:48:31.632Z,63.41
2018-07-11T09:50:27.571Z,62.35
2018-07-11T09:51:27.568Z,61.68
2018-07-11T09:53:22.012Z,61.19
2018-07-11T09:54:22.528Z,61.10
2018-07-11T09:56:18.486Z,60.42
2018-07-11T09:57:17.971Z,60.80
2018-07-11T09:59:12.408Z,59.84
2018-07-11T10:00:12.439Z,59.27
2018-07-11T10:02:08.370Z,59.55
2018-07-11T10:03:08.407Z,59.75
2018-07-11T10:05:04.317Z,59.84
2018-07-11T10:06:04.335Z,59.45
2018-07-11T10:08:00.331Z,59.07
2018-07-11T10:09:00.292Z,59.58
2018-07-11T10:10:56.265Z,57.94
2018-07-11T10:11:56.330Z,58.72
2018-07-11T10:13:52.739Z,56.91
2018-07-11T10:14:52.721Z,56.43
2018-07-11T10:16:45.688Z,56.81
2018-07-11T10:17:45.649Z,57.29
2018-07-11T10:19:41.119Z,57.01
2018-07-11T10:20:40.096Z,57.46
2018-07-11T10:22:34.568Z,58.14
2018-07-11T10:23:34.551Z,57.75
2018-07-11T10:25:31.519Z,55.54
2018-07-11T10:26:30.499Z,55.94
2018-07-11T10:28:24.962Z,55.85
2018-07-11T10:29:24.981Z,54.60
2018-07-11T10:31:19.446Z,53.95
2018-07-11T10:32:20.441Z,53.95
2018-07-11T10:34:13.910Z,52.98
2018-07-11T10:35:13.897Z,53.17
2018-07-11T10:37:07.404Z,52.31
2018-07-11T10:38:07.373Z,52.89
2018-07-11T10:40:03.666Z,54.50
2018-07-11T10:41:04.135Z,55.27
2018-07-11T10:43:12.387Z,54.60
2018-07-11T10:44:12.422Z,54.69
2018-07-11T10:46:10.278Z,55.66
2018-07-11T10:47:07.678Z,54.40
2018-07-11T10:49:01.804Z,54.50
2018-07-11T10:50:02.777Z,53.73
2018-07-11T10:51:58.269Z,54.11
2018-07-11T10:52:57.782Z,54.47
2018-07-11T10:54:52.250Z,54.38
2018-07-11T10:55:52.236Z,54.18
2018-07-11T10:58:00.798Z,54.47
2018-07-11T10:58:59.868Z,54.57
2018-07-11T11:01:05.697Z,54.57
2018-07-11T11:01:55.827Z,54.38
2018-07-11T11:03:50.284Z,54.57
2018-07-11T11:04:51.366Z,54.66
2018-07-11T11:06:45.064Z,54.96
2018-07-11T11:07:44.706Z,54.57
2018-07-11T11:09:39.676Z,54.57
2018-07-11T11:10:39.172Z,55.05
2018-07-11T11:12:33.651Z,54.18
2018-07-11T11:13:33.656Z,52.64
2018-07-11T11:15:28.621Z,51.89
2018-07-11T11:16:28.111Z,50.45
2018-07-11T11:18:22.581Z,50.09
2018-07-11T11:19:22.562Z,49.90
2018-07-11T11:21:18.535Z,50.09
2018-07-11T11:22:18.528Z,49.82
2018-07-11T11:24:13.006Z,49.15
2018-07-11T11:25:13.486Z,49.34
2018-07-11T11:27:08.952Z,48.86
2018-07-11T11:28:08.954Z,48.47
2018-07-11T11:30:06.408Z,47.80
2018-07-11T11:31:04.889Z,47.70
2018-07-11T11:33:00.358Z,47.41
2018-07-11T11:33:59.370Z,47.31
2018-07-11T11:35:53.829Z,47.81
2018-07-11T11:36:53.845Z,47.02
2018-07-11T11:38:49.831Z,47.99
2018-07-11T11:39:50.306Z,47.53
2018-07-11T11:41:45.826Z,46.56
2018-07-11T11:42:45.840Z,46.85
2018-07-11T11:44:42.244Z,46.47
2018-07-11T11:45:41.822Z,47.33
2018-07-11T11:47:38.719Z,46.85
2018-07-11T11:48:37.727Z,46.75
2018-07-11T11:50:33.705Z,46.37
2018-07-11T11:51:33.718Z,46.47
2018-07-11T11:53:29.675Z,46.47
2018-07-11T11:54:28.176Z,46.58
2018-07-11T11:56:25.385Z,45.72
2018-07-11T11:57:26.149Z,45.23
2018-07-11T11:59:19.845Z,45.42
2018-07-11T12:00:18.844Z,45.42
2018-07-11T12:02:14.830Z,46.68
2018-07-11T12:03:14.803Z,45.21
2018-07-11T12:05:10.784Z,45.69
2018-07-11T12:06:10.754Z,45.59
2018-07-11T12:08:07.717Z,44.82
2018-07-11T12:09:06.708Z,43.85
2018-07-11T12:11:04.225Z,42.70
2018-07-11T12:12:02.698Z,42.91
2018-07-11T12:13:58.617Z,42.43
2018-07-11T12:14:58.625Z,42.91
2018-07-11T12:16:54.625Z,42.62
2018-07-11T12:17:54.553Z,43.03
2018-07-11T12:19:51.514Z,42.93
2018-07-11T12:20:50.505Z,42.45
2018-07-11T12:22:49.973Z,41.79
2018-07-11T12:23:48.644Z,41.50
2018-07-11T12:25:43.113Z,41.09
2018-07-11T12:26:43.094Z,41.00
2018-07-11T12:28:41.560Z,40.92
2018-07-11T12:29:41.066Z,40.63
2018-07-11T12:31:35.525Z,40.25
2018-07-11T12:32:35.521Z,40.71
2018-07-11T12:34:32.486Z,40.61
2018-07-11T12:35:31.992Z,41.19
2018-07-11T12:37:26.458Z,42.04
2018-07-11T12:38:25.943Z,42.62
2018-07-11T12:40:20.911Z,42.24
2018-07-11T12:41:20.421Z,42.52
2018-07-11T12:43:15.381Z,41.58
2018-07-11T12:44:14.876Z,41.39
2018-07-11T12:46:10.825Z,40.23
2018-07-11T12:47:11.345Z,39.37
2018-07-11T12:49:07.775Z,39.26
2018-07-11T12:50:06.764Z,39.18
2018-07-11T12:52:03.733Z,39.67
2018-07-11T12:53:02.730Z,39.47
2018-07-11T12:54:58.709Z,39.39
2018-07-11T12:55:58.688Z,39.39
2018-07-11T12:57:53.677Z,38.91
2018-07-11T12:58:53.162Z,39.11
2018-07-11T13:00:48.605Z,39.86
2018-07-11T13:01:47.619Z,40.36
2018-07-11T13:03:43.595Z,40.00
2018-07-11T13:04:44.574Z,39.32
2018-07-11T13:06:41.052Z,39.12
2018-07-11T13:07:40.081Z,39.01
2018-07-11T13:09:35.986Z,40.17
2018-07-11T13:10:35.476Z,40.56
2018-07-11T13:12:31.453Z,41.21
2018-07-11T13:13:29.942Z,41.02
2018-07-11T13:15:25.927Z,41.70
2018-07-11T13:16:25.903Z,41.99
2018-07-11T13:18:21.852Z,42.08
2018-07-11T13:19:21.869Z,42.37
2018-07-11T13:21:17.827Z,42.76
2018-07-11T13:22:17.846Z,43.44
2018-07-11T13:24:14.317Z,43.37
2018-07-11T13:25:13.809Z,42.88
2018-07-11T13:27:09.822Z,43.07
2018-07-11T13:28:09.800Z,42.96
2018-07-11T13:30:06.745Z,44.09
2018-07-11T13:31:05.765Z,44.96
2018-07-11T13:33:02.227Z,45.25
2018-07-11T13:34:01.744Z,45.25
2018-07-11T13:35:56.688Z,45.54
2018-07-11T13:36:56.199Z,45.74
2018-07-11T13:38:53.675Z,46.51
2018-07-11T13:39:52.185Z,46.61
2018-07-11T13:41:48.152Z,46.32
2018-07-11T13:42:48.119Z,46.97
2018-07-11T13:44:44.128Z,46.88
2018-07-11T13:45:44.119Z,47.26
2018-07-11T13:47:40.074Z,48.03
2018-07-11T13:48:40.075Z,47.65
2018-07-11T13:50:35.071Z,48.71
2018-07-11T13:51:34.555Z,48.52
2018-07-11T13:53:31.014Z,48.39
2018-07-11T13:54:30.537Z,48.97
2018-07-11T13:56:28.426Z,49.37
2018-07-11T13:57:26.484Z,49.27
2018-07-11T13:59:22.947Z,49.95
2018-07-11T14:00:22.434Z,49.37
2018-07-11T14:02:18.407Z,49.27
2018-07-11T14:03:18.399Z,49.55
2018-07-11T14:05:12.887Z,49.65
2018-07-11T14:06:12.861Z,49.27
2018-07-11T14:08:08.852Z,49.27
2018-07-11T14:09:08.842Z,49.37
2018-07-11T14:11:04.289Z,49.17
2018-07-11T14:12:03.327Z,49.17
2018-07-11T14:13:59.869Z,49.95
2018-07-11T14:14:59.297Z,49.75
2018-07-11T14:16:55.284Z,50.21
2018-07-11T14:17:55.243Z,50.21
2018-07-11T14:19:51.187Z,50.31
2018-07-11T14:20:50.176Z,50.59
2018-07-11T14:22:45.652Z,50.98
2018-07-11T14:23:45.658Z,50.79
2018-07-11T14:25:41.650Z,50.79
2018-07-11T14:26:41.614Z,51.17
2018-07-11T14:28:36.613Z,51.37
2018-07-11T14:29:36.180Z,51.17
2018-07-11T14:31:32.076Z,51.27
2018-07-11T14:32:32.056Z,51.37
2018-07-11T14:34:28.024Z,51.27
2018-07-11T14:35:28.012Z,51.27
2018-07-11T14:37:22.489Z,51.17
2018-07-11T14:38:22.974Z,50.89
2018-07-11T14:40:17.439Z,51.75
2018-07-11T14:41:17.425Z,51.75
2018-07-11T14:43:12.905Z,51.85
2018-07-11T14:44:13.412Z,51.92
2018-07-11T14:46:08.875Z,52.59
2018-07-11T14:47:09.365Z,52.69
2018-07-11T14:49:03.772Z,52.31
2018-07-11T14:50:05.198Z,52.79
2018-07-11T14:51:58.736Z,52.89
2018-07-11T14:52:57.733Z,53.08
2018-07-11T14:54:54.205Z,53.17
2018-07-11T14:55:53.679Z,52.69
2018-07-11T14:57:50.142Z,52.98
2018-07-11T14:58:49.657Z,53.08
2018-07-11T15:00:44.601Z,53.27
2018-07-11T15:01:44.122Z,53.69
2018-07-11T15:03:37.575Z,53.66
2018-07-11T15:04:37.560Z,54.14
2018-07-11T15:06:32.000Z,53.95
2018-07-11T15:07:31.999Z,54.14
2018-07-11T15:09:26.794Z,54.14
2018-07-11T15:10:26.495Z,54.33
2018-07-11T15:12:19.926Z,54.43
2018-07-11T15:13:19.936Z,54.82
2018-07-11T15:15:14.914Z,55.98
2018-07-11T15:16:14.408Z,57.23
2018-07-11T15:18:08.866Z,61.25
2018-07-11T15:19:08.873Z,63.63
2018-07-11T15:21:03.322Z,67.65
2018-07-11T15:22:04.328Z,70.54
2018-07-11T15:23:56.824Z,79.17
2018-07-11T15:24:56.816Z,85.10
2018-07-11T15:26:53.304Z,90.16
2018-07-11T15:27:52.744Z,93.15
2018-07-11T15:29:47.188Z,95.94
2018-07-11T15:30:47.760Z,97.71
2018-07-11T15:32:43.708Z,99.99
2018-07-11T15:33:43.187Z,99.99
2018-07-11T15:35:37.593Z,99.99
2018-07-11T15:36:37.596Z,99.99
2018-07-11T15:38:33.537Z,99.64
2018-07-11T15:39:33.535Z,99.54
2018-07-11T15:41:28.007Z,99.73
2018-07-11T15:42:30.016Z,99.73
2018-07-11T15:44:31.473Z,99.64
2018-07-11T15:46:53.178Z,99.64
2018-07-11T15:47:44.199Z,99.99
2018-07-11T15:49:40.017Z,99.83
2018-07-11T15:50:39.334Z,99.26
2018-07-11T15:52:34.269Z,99.59
2018-07-11T15:53:34.735Z,99.93
2018-07-11T15:55:27.375Z,99.54
2018-07-11T15:56:28.220Z,99.26
2018-07-11T15:58:22.394Z,98.58
2018-07-11T15:59:22.191Z,97.71
2018-07-11T16:01:18.004Z,97.04
2018-07-11T16:02:17.501Z,97.28
2018-07-11T16:04:12.419Z,96.32
2018-07-11T16:05:12.095Z,96.22
2018-07-11T16:07:07.194Z,95.65
2018-07-11T16:08:06.851Z,95.21
2018-07-11T16:10:00.953Z,93.29
2018-07-11T16:11:00.946Z,92.71
2018-07-11T16:13:11.212Z,91.60
2018-07-11T16:14:11.215Z,91.12
2018-07-11T16:16:06.351Z,91.31
2018-07-11T16:17:06.192Z,91.89
2018-07-11T16:19:01.684Z,91.17
2018-07-11T16:20:00.108Z,91.55
2018-07-11T16:22:22.067Z,92.90
2018-07-11T16:24:35.122Z,92.42
2018-07-11T16:25:39.152Z,92.90
2018-07-11T16:27:30.565Z,92.80
2018-07-11T16:28:29.574Z,92.61
2018-07-11T16:30:24.137Z,92.71
2018-07-11T16:31:25.524Z,92.90
2018-07-11T16:33:18.014Z,93.19
2018-07-11T16:34:17.493Z,92.61
2018-07-11T16:36:12.471Z,92.71
2018-07-11T16:37:12.979Z,93.00
2018-07-11T16:39:06.942Z,92.52
2018-07-11T16:40:06.429Z,92.42
2018-07-11T16:42:02.396Z,90.97
2018-07-11T16:43:02.497Z,91.84
2018-07-11T16:44:58.843Z,92.22
2018-07-11T16:45:59.845Z,92.32
2018-07-11T16:47:52.830Z,92.13
2018-07-11T16:48:52.776Z,92.32
2018-07-11T16:50:47.227Z,92.32
2018-07-11T16:51:48.682Z,92.90
2018-07-11T16:53:42.202Z,91.69
2018-07-11T16:54:41.709Z,91.50
2018-07-11T16:56:37.614Z,89.96
2018-07-11T16:57:37.641Z,90.73
2018-07-11T16:59:34.088Z,91.50
2018-07-11T17:00:32.097Z,91.31
2018-07-11T17:02:27.062Z,90.54
2018-07-11T17:03:26.592Z,90.54
2018-07-11T17:05:21.020Z,89.86
2018-07-11T17:06:21.526Z,89.48
2018-07-11T17:08:15.981Z,89.67
2018-07-11T17:09:15.469Z,89.67
2018-07-11T17:11:09.912Z,89.58
2018-07-11T17:12:10.417Z,88.71
2018-07-11T17:14:04.387Z,87.55
2018-07-11T17:15:04.370Z,87.17
2018-07-11T17:16:58.807Z,87.74
2018-07-11T17:17:58.794Z,88.04
2018-07-11T17:19:53.228Z,88.13
2018-07-11T17:20:53.252Z,88.04
2018-07-11T17:22:47.706Z,87.55
2018-07-11T17:23:48.201Z,87.46
2018-07-11T17:25:42.669Z,88.32
2018-07-11T17:26:42.675Z,88.13
2018-07-11T17:28:36.612Z,88.13
2018-07-11T17:29:36.617Z,88.90
2018-07-11T17:31:31.058Z,89.19
2018-07-11T17:32:31.052Z,89.58
2018-07-11T17:34:25.553Z,88.90
2018-07-11T17:35:25.509Z,89.19
2018-07-11T17:37:19.984Z,89.39
2018-07-11T17:38:19.964Z,89.39
2018-07-11T17:40:15.954Z,88.51
2018-07-11T17:41:15.932Z,89.48
2018-07-11T17:43:09.391Z,89.48
2018-07-11T17:44:09.372Z,90.54
2018-07-11T17:46:04.345Z,91.21
2018-07-11T17:47:04.338Z,92.03
2018-07-11T17:48:58.269Z,94.92
2018-07-11T17:49:58.255Z,95.36
2018-07-11T17:51:51.719Z,97.76
2018-07-11T17:52:51.714Z,99.99
2018-07-11T17:54:46.151Z,99.99
2018-07-11T17:55:46.170Z,99.99
2018-07-11T17:57:40.619Z,99.99
2018-07-11T17:58:41.124Z,99.99
2018-07-11T18:00:35.096Z,99.99
2018-07-11T18:01:35.085Z,99.99
2018-07-11T18:03:31.567Z,99.99
2018-07-11T18:04:31.051Z,99.99
2018-07-11T18:06:26.028Z,99.99
2018-07-11T18:07:25.462Z,99.99
2018-07-11T18:09:23.435Z,99.99
2018-07-11T18:10:23.928Z,99.99
2018-07-11T18:12:21.881Z,99.99
2018-07-11T18:13:21.511Z,99.99
2018-07-11T18:15:15.951Z,99.99
2018-07-11T18:16:15.969Z,99.99
2018-07-11T18:18:10.936Z,99.99
2018-07-11T18:19:10.461Z,99.99
2018-07-11T18:21:04.860Z,99.99
2018-07-11T18:22:04.870Z,99.97
2018-07-11T18:23:59.317Z,99.44
2018-07-11T18:24:59.327Z,98.43
2018-07-11T18:26:53.733Z,98.29
2018-07-11T18:27:53.727Z,97.38
2018-07-11T18:29:48.230Z,96.42
2018-07-11T18:30:48.194Z,95.55
2018-07-11T18:32:45.142Z,95.84
2018-07-11T18:33:45.067Z,96.13
2018-07-11T18:35:38.588Z,95.94
2018-07-11T18:36:38.588Z,95.65
2018-07-11T18:38:33.542Z,94.69
2018-07-11T18:39:33.046Z,94.88
2018-07-11T18:41:31.509Z,94.40
2018-07-11T18:42:30.998Z,93.77
2018-07-11T18:44:25.504Z,93.39
2018-07-11T18:45:25.429Z,92.82
2018-07-11T18:47:20.424Z,92.24
2018-07-11T18:48:19.899Z,91.66
2018-07-11T18:50:16.381Z,91.47
2018-07-11T18:51:14.332Z,90.70
2018-07-11T18:53:08.778Z,89.84